sensor_id;sensor_type;location;lat;lon;timestamp;temperature;humidity
10433;DHT22;5263;48.680;9.004;2023-03-14T00:00:48;8.50;99.90
10433;DHT22;5263;48.680;9.004;2023-03-14T00:03:13;8.70;99.90
10433;DHT22;5263;48.680;9.004;2023-03-14T00:05:39;8.50;99.90
10433;DHT22;5263;48.680;9.004;2023-03-14T00:08:04;8.50;99.90
10433;DHT22;5263;48.680;9.004;2023-03-14T00:10:30;8.60;99.90
10433;DHT22;5263;48.680;9.004;2023-03-14T00:12:56;8.60;99.90
10433;DHT22;5263;48.680;9.004;2023-03-14T00:15:21;8.50;99.90
10433;DHT22;5263;48.680;9.004;2023-03-14T00:17:47;8.60;99.90
10433;DHT22;5263;48.680;9.004;2023-03-14T00:20:12;8.50;99.90
10433;DHT22;5263;48.680;9.004;2023-03-14T00:22:39;8.50;99.90
10433;DHT22;5263;48.680;9.004;2023-03-14T00:25:05;9.60;99.90
10433;DHT22;5263;48.680;9.004;2023-03-14T00:27:32;8.60;99.90
10433;DHT22;5263;48.680;9.004;2023-03-14T00:29:58;8.50;99.90
10433;DHT22;5263;48.680;9.004;2023-03-14T00:32:24;8.60;99.90
10433;DHT22;5263;48.680;9.004;2023-03-14T00:34:50;8.50;99.90
10433;DHT22;5263;48.680;9.004;2023-03-14T00:37:16;8.70;99.90
10433;DHT22;5263;48.680;9.004;2023-03-14T00:39:41;8.60;99.90
10433;DHT22;5263;48.680;9.004;2023-03-14T00:42:07;8.60;99.90
10433;DHT22;5263;48.680;9.004;2023-03-14T00:44:32;8.50;99.90
10433;DHT22;5263;48.680;9.004;2023-03-14T00:46:58;8.60;99.90
10433;DHT22;5263;48.680;9.004;2023-03-14T00:49:24;8.60;99.90
10433;DHT22;5263;48.680;9.004;2023-03-14T00:51:50;8.60;99.90
10433;DHT22;5263;48.680;9.004;2023-03-14T00:54:17;8.70;99.90
10433;DHT22;5263;48.680;9.004;2023-03-14T00:56:43;8.70;99.90
10433;DHT22;5263;48.680;9.004;2023-03-14T00:59:08;8.70;99.90
10433;DHT22;5263;48.680;9.004;2023-03-14T01:01:34;8.70;99.90
10433;DHT22;5263;48.680;9.004;2023-03-14T01:04:00;8.80;99.90
10433;DHT22;5263;48.680;9.004;2023-03-14T01:06:27;8.90;99.90
10433;DHT22;5263;48.680;9.004;2023-03-14T01:08:54;8.70;99.90
10433;DHT22;5263;48.680;9.004;2023-03-14T01:11:29;8.70;99.90
10433;DHT22;5263;48.680;9.004;2023-03-14T01:13:55;8.80;99.90
10433;DHT22;5263;48.680;9.004;2023-03-14T01:16:23;8.80;99.90
10433;DHT22;5263;48.680;9.004;2023-03-14T01:18:49;8.80;99.90
10433;DHT22;5263;48.680;9.004;2023-03-14T01:21:30;8.80;99.90
10433;DHT22;5263;48.680;9.004;2023-03-14T01:23:57;8.80;99.90
10433;DHT22;5263;48.680;9.004;2023-03-14T01:26:25;8.90;99.90
10433;DHT22;5263;48.680;9.004;2023-03-14T01:28:53;8.80;99.90
10433;DHT22;5263;48.680;9.004;2023-03-14T01:31:19;8.80;99.90
10433;DHT22;5263;48.680;9.004;2023-03-14T01:33:45;8.80;99.90
10433;DHT22;5263;48.680;9.004;2023-03-14T01:36:12;8.80;99.90
10433;DHT22;5263;48.680;9.004;2023-03-14T01:38:38;8.90;99.90
10433;DHT22;5263;48.680;9.004;2023-03-14T01:41:05;8.80;99.90
10433;DHT22;5263;48.680;9.004;2023-03-14T01:43:31;8.70;99.90
10433;DHT22;5263;48.680;9.004;2023-03-14T01:54:18;8.50;99.90
10433;DHT22;5263;48.680;9.004;2023-03-14T01:56:49;8.50;99.90
10433;DHT22;5263;48.680;9.004;2023-03-14T01:59:15;8.50;99.90
10433;DHT22;5263;48.680;9.004;2023-03-14T02:01:43;8.40;99.90
10433;DHT22;5263;48.680;9.004;2023-03-14T02:04:10;8.50;99.90
10433;DHT22;5263;48.680;9.004;2023-03-14T02:06:52;8.50;99.90
10433;DHT22;5263;48.680;9.004;2023-03-14T02:09:20;8.50;99.90
10433;DHT22;5263;48.680;9.004;2023-03-14T02:11:46;8.50;99.90
10433;DHT22;5263;48.680;9.004;2023-03-14T02:14:22;8.50;99.90
10433;DHT22;5263;48.680;9.004;2023-03-14T02:16:50;8.60;99.90
10433;DHT22;5263;48.680;9.004;2023-03-14T02:19:21;8.50;99.90
10433;DHT22;5263;48.680;9.004;2023-03-14T02:21:53;8.50;99.90
10433;DHT22;5263;48.680;9.004;2023-03-14T02:24:43;8.50;99.90
10433;DHT22;5263;48.680;9.004;2023-03-14T02:27:18;8.40;99.90
10433;DHT22;5263;48.680;9.004;2023-03-14T02:30:00;8.50;99.90
10433;DHT22;5263;48.680;9.004;2023-03-14T02:32:27;8.50;99.90
10433;DHT22;5263;48.680;9.004;2023-03-14T02:34:57;8.40;99.90
10433;DHT22;5263;48.680;9.004;2023-03-14T02:37:25;8.50;99.90
10433;DHT22;5263;48.680;9.004;2023-03-14T02:39:52;8.40;99.90
10433;DHT22;5263;48.680;9.004;2023-03-14T02:42:18;8.40;99.90
10433;DHT22;5263;48.680;9.004;2023-03-14T02:47:34;8.40;99.90
10433;DHT22;5263;48.680;9.004;2023-03-14T02:50:08;8.50;99.90
10433;DHT22;5263;48.680;9.004;2023-03-14T02:52:34;8.30;99.90
10433;DHT22;5263;48.680;9.004;2023-03-14T02:55:00;8.40;99.90
10433;DHT22;5263;48.680;9.004;2023-03-14T02:57:26;8.40;99.90
10433;DHT22;5263;48.680;9.004;2023-03-14T02:59:51;8.30;99.90
10433;DHT22;5263;48.680;9.004;2023-03-14T03:02:17;8.30;99.90
10433;DHT22;5263;48.680;9.004;2023-03-14T03:04:42;8.30;99.90
10433;DHT22;5263;48.680;9.004;2023-03-14T03:07:08;8.30;99.90
10433;DHT22;5263;48.680;9.004;2023-03-14T03:09:34;8.40;99.90
10433;DHT22;5263;48.680;9.004;2023-03-14T03:11:59;8.30;99.90
10433;DHT22;5263;48.680;9.004;2023-03-14T03:14:25;8.30;99.90
10433;DHT22;5263;48.680;9.004;2023-03-14T03:16:50;8.30;99.90
10433;DHT22;5263;48.680;9.004;2023-03-14T03:19:16;8.40;99.90
10433;DHT22;5263;48.680;9.004;2023-03-14T03:21:43;8.30;99.90
10433;DHT22;5263;48.680;9.004;2023-03-14T03:24:09;8.30;99.90
10433;DHT22;5263;48.680;9.004;2023-03-14T03:26:35;8.30;99.90
10433;DHT22;5263;48.680;9.004;2023-03-14T03:29:01;8.30;99.90
10433;DHT22;5263;48.680;9.004;2023-03-14T03:31:27;8.30;99.90
10433;DHT22;5263;48.680;9.004;2023-03-14T03:33:53;8.30;99.90
10433;DHT22;5263;48.680;9.004;2023-03-14T03:36:23;8.30;99.90
10433;DHT22;5263;48.680;9.004;2023-03-14T03:38:49;8.40;99.90
10433;DHT22;5263;48.680;9.004;2023-03-14T03:41:15;8.40;99.90
10433;DHT22;5263;48.680;9.004;2023-03-14T03:43:40;8.30;99.90
10433;DHT22;5263;48.680;9.004;2023-03-14T03:46:07;8.20;99.90
10433;DHT22;5263;48.680;9.004;2023-03-14T03:48:34;8.20;99.90
10433;DHT22;5263;48.680;9.004;2023-03-14T03:51:00;8.20;99.90
10433;DHT22;5263;48.680;9.004;2023-03-14T03:53:26;8.20;99.90
10433;DHT22;5263;48.680;9.004;2023-03-14T03:55:51;8.20;99.90
10433;DHT22;5263;48.680;9.004;2023-03-14T03:58:17;8.20;99.90
10433;DHT22;5263;48.680;9.004;2023-03-14T04:00:43;8.10;99.90
10433;DHT22;5263;48.680;9.004;2023-03-14T04:03:08;8.10;99.90
10433;DHT22;5263;48.680;9.004;2023-03-14T04:05:35;8.10;99.90
10433;DHT22;5263;48.680;9.004;2023-03-14T04:08:01;8.10;99.90
10433;DHT22;5263;48.680;9.004;2023-03-14T04:10:26;8.30;99.90
10433;DHT22;5263;48.680;9.004;2023-03-14T04:12:52;8.20;99.90
10433;DHT22;5263;48.680;9.004;2023-03-14T04:15:18;8.20;99.90
10433;DHT22;5263;48.680;9.004;2023-03-14T04:17:44;8.10;99.90
10433;DHT22;5263;48.680;9.004;2023-03-14T04:20:10;8.20;99.90
10433;DHT22;5263;48.680;9.004;2023-03-14T04:22:39;8.20;99.90
10433;DHT22;5263;48.680;9.004;2023-03-14T04:25:05;8.20;99.90
10433;DHT22;5263;48.680;9.004;2023-03-14T04:27:31;8.20;99.90
10433;DHT22;5263;48.680;9.004;2023-03-14T04:29:57;8.00;99.90
10433;DHT22;5263;48.680;9.004;2023-03-14T04:32:23;8.30;99.90
10433;DHT22;5263;48.680;9.004;2023-03-14T04:34:48;8.30;99.90
10433;DHT22;5263;48.680;9.004;2023-03-14T04:37:14;8.20;99.90
10433;DHT22;5263;48.680;9.004;2023-03-14T04:39:40;8.20;99.90
10433;DHT22;5263;48.680;9.004;2023-03-14T04:42:05;8.10;99.90
10433;DHT22;5263;48.680;9.004;2023-03-14T04:44:31;8.10;99.90
10433;DHT22;5263;48.680;9.004;2023-03-14T04:46:57;8.10;99.90
10433;DHT22;5263;48.680;9.004;2023-03-14T04:49:22;8.20;99.90
10433;DHT22;5263;48.680;9.004;2023-03-14T04:51:48;8.10;99.90
10433;DHT22;5263;48.680;9.004;2023-03-14T04:54:16;8.20;99.90
10433;DHT22;5263;48.680;9.004;2023-03-14T04:56:42;8.20;99.90
10433;DHT22;5263;48.680;9.004;2023-03-14T04:59:08;8.10;99.90
10433;DHT22;5263;48.680;9.004;2023-03-14T05:01:34;8.20;99.90
10433;DHT22;5263;48.680;9.004;2023-03-14T05:04:00;8.00;99.90
10433;DHT22;5263;48.680;9.004;2023-03-14T05:06:25;8.00;99.90
10433;DHT22;5263;48.680;9.004;2023-03-14T05:08:51;8.00;99.90
10433;DHT22;5263;48.680;9.004;2023-03-14T05:11:17;8.00;99.90
10433;DHT22;5263;48.680;9.004;2023-03-14T05:13:43;8.00;99.90
10433;DHT22;5263;48.680;9.004;2023-03-14T05:16:10;8.10;99.90
10433;DHT22;5263;48.680;9.004;2023-03-14T05:18:36;8.00;99.90
10433;DHT22;5263;48.680;9.004;2023-03-14T05:21:02;8.00;99.90
10433;DHT22;5263;48.680;9.004;2023-03-14T05:23:28;8.00;99.90
10433;DHT22;5263;48.680;9.004;2023-03-14T05:25:54;8.00;99.90
10433;DHT22;5263;48.680;9.004;2023-03-14T05:28:19;8.10;99.90
10433;DHT22;5263;48.680;9.004;2023-03-14T05:30:45;8.10;99.90
10433;DHT22;5263;48.680;9.004;2023-03-14T05:33:11;8.20;99.90
10433;DHT22;5263;48.680;9.004;2023-03-14T05:35:37;8.20;99.90
10433;DHT22;5263;48.680;9.004;2023-03-14T05:38:02;8.20;99.90
10433;DHT22;5263;48.680;9.004;2023-03-14T05:40:28;8.10;99.90
10433;DHT22;5263;48.680;9.004;2023-03-14T05:42:54;8.10;99.90
10433;DHT22;5263;48.680;9.004;2023-03-14T05:45:19;8.10;99.90
10433;DHT22;5263;48.680;9.004;2023-03-14T05:47:45;8.00;99.90
10433;DHT22;5263;48.680;9.004;2023-03-14T05:50:10;8.10;99.90
10433;DHT22;5263;48.680;9.004;2023-03-14T05:52:37;8.00;99.90
10433;DHT22;5263;48.680;9.004;2023-03-14T05:55:02;8.10;99.90
10433;DHT22;5263;48.680;9.004;2023-03-14T05:57:28;8.00;99.90
10433;DHT22;5263;48.680;9.004;2023-03-14T05:59:54;8.10;99.90
10433;DHT22;5263;48.680;9.004;2023-03-14T06:02:19;8.10;99.90
10433;DHT22;5263;48.680;9.004;2023-03-14T06:04:45;8.00;99.90
10433;DHT22;5263;48.680;9.004;2023-03-14T06:07:11;8.20;99.90
10433;DHT22;5263;48.680;9.004;2023-03-14T06:09:36;8.10;99.90
10433;DHT22;5263;48.680;9.004;2023-03-14T06:12:03;8.20;99.90
10433;DHT22;5263;48.680;9.004;2023-03-14T06:14:28;8.20;99.90
10433;DHT22;5263;48.680;9.004;2023-03-14T06:16:54;8.20;99.90
10433;DHT22;5263;48.680;9.004;2023-03-14T06:19:19;8.20;99.90
10433;DHT22;5263;48.680;9.004;2023-03-14T06:21:46;8.50;99.90
10433;DHT22;5263;48.680;9.004;2023-03-14T06:24:12;8.40;99.90
10433;DHT22;5263;48.680;9.004;2023-03-14T06:26:37;8.40;99.90
10433;DHT22;5263;48.680;9.004;2023-03-14T06:29:03;8.20;99.90
10433;DHT22;5263;48.680;9.004;2023-03-14T06:31:30;8.50;99.90
10433;DHT22;5263;48.680;9.004;2023-03-14T06:33:56;8.50;99.90
10433;DHT22;5263;48.680;9.004;2023-03-14T06:36:22;8.50;99.90
10433;DHT22;5263;48.680;9.004;2023-03-14T06:38:47;8.40;99.90
10433;DHT22;5263;48.680;9.004;2023-03-14T06:41:13;8.50;99.90
10433;DHT22;5263;48.680;9.004;2023-03-14T06:43:39;8.50;99.90
10433;DHT22;5263;48.680;9.004;2023-03-14T06:46:05;8.60;99.90
10433;DHT22;5263;48.680;9.004;2023-03-14T06:48:30;8.70;99.90
10433;DHT22;5263;48.680;9.004;2023-03-14T06:50:56;8.80;99.90
10433;DHT22;5263;48.680;9.004;2023-03-14T06:53:22;8.90;99.90
10433;DHT22;5263;48.680;9.004;2023-03-14T06:55:47;9.10;99.90
10433;DHT22;5263;48.680;9.004;2023-03-14T06:58:13;9.10;99.90
10433;DHT22;5263;48.680;9.004;2023-03-14T07:00:39;9.10;99.90
10433;DHT22;5263;48.680;9.004;2023-03-14T07:03:04;9.00;99.90
10433;DHT22;5263;48.680;9.004;2023-03-14T07:05:30;9.20;99.90
10433;DHT22;5263;48.680;9.004;2023-03-14T07:07:55;9.20;99.90
10433;DHT22;5263;48.680;9.004;2023-03-14T07:10:21;9.30;99.90
10433;DHT22;5263;48.680;9.004;2023-03-14T07:12:47;9.30;99.90
10433;DHT22;5263;48.680;9.004;2023-03-14T07:15:12;9.20;99.90
10433;DHT22;5263;48.680;9.004;2023-03-14T07:17:38;9.10;99.90
10433;DHT22;5263;48.680;9.004;2023-03-14T07:20:04;9.10;99.90
10433;DHT22;5263;48.680;9.004;2023-03-14T07:22:30;9.30;99.90
10433;DHT22;5263;48.680;9.004;2023-03-14T07:24:56;9.50;99.90
10433;DHT22;5263;48.680;9.004;2023-03-14T07:27:21;9.60;99.90
10433;DHT22;5263;48.680;9.004;2023-03-14T07:29:47;9.70;99.90
10433;DHT22;5263;48.680;9.004;2023-03-14T07:32:12;9.90;99.90
10433;DHT22;5263;48.680;9.004;2023-03-14T07:34:41;9.90;99.90
10433;DHT22;5263;48.680;9.004;2023-03-14T07:37:07;9.80;99.90
10433;DHT22;5263;48.680;9.004;2023-03-14T07:39:32;9.80;99.90
10433;DHT22;5263;48.680;9.004;2023-03-14T07:41:58;10.00;99.90
10433;DHT22;5263;48.680;9.004;2023-03-14T07:44:23;10.10;99.90
10433;DHT22;5263;48.680;9.004;2023-03-14T07:46:49;10.10;99.90
10433;DHT22;5263;48.680;9.004;2023-03-14T07:49:15;10.10;99.90
10433;DHT22;5263;48.680;9.004;2023-03-14T07:51:40;10.10;99.90
10433;DHT22;5263;48.680;9.004;2023-03-14T07:54:06;10.30;99.90
10433;DHT22;5263;48.680;9.004;2023-03-14T07:56:31;10.40;99.90
10433;DHT22;5263;48.680;9.004;2023-03-14T07:58:57;10.50;99.90
10433;DHT22;5263;48.680;9.004;2023-03-14T08:01:23;10.60;99.90
10433;DHT22;5263;48.680;9.004;2023-03-14T08:03:48;10.70;99.90
10433;DHT22;5263;48.680;9.004;2023-03-14T08:06:14;10.90;99.90
10433;DHT22;5263;48.680;9.004;2023-03-14T08:08:40;11.00;99.90
10433;DHT22;5263;48.680;9.004;2023-03-14T08:11:07;11.00;99.90
10433;DHT22;5263;48.680;9.004;2023-03-14T08:13:34;10.90;99.90
10433;DHT22;5263;48.680;9.004;2023-03-14T08:16:00;10.70;99.90
10433;DHT22;5263;48.680;9.004;2023-03-14T08:18:26;10.80;99.90
10433;DHT22;5263;48.680;9.004;2023-03-14T08:20:52;10.80;99.90
10433;DHT22;5263;48.680;9.004;2023-03-14T08:23:17;10.80;99.90
10433;DHT22;5263;48.680;9.004;2023-03-14T08:25:43;11.10;99.90
10433;DHT22;5263;48.680;9.004;2023-03-14T08:28:08;11.30;99.90
10433;DHT22;5263;48.680;9.004;2023-03-14T08:30:34;11.20;99.90
10433;DHT22;5263;48.680;9.004;2023-03-14T08:33:00;11.30;99.90
10433;DHT22;5263;48.680;9.004;2023-03-14T08:35:26;11.00;99.90
10433;DHT22;5263;48.680;9.004;2023-03-14T08:37:52;10.70;99.90
10433;DHT22;5263;48.680;9.004;2023-03-14T08:40:18;10.80;99.90
10433;DHT22;5263;48.680;9.004;2023-03-14T08:42:44;10.60;99.90
10433;DHT22;5263;48.680;9.004;2023-03-14T08:45:12;10.50;99.90
10433;DHT22;5263;48.680;9.004;2023-03-14T08:47:38;10.50;99.90
10433;DHT22;5263;48.680;9.004;2023-03-14T08:50:04;10.60;99.90
10433;DHT22;5263;48.680;9.004;2023-03-14T08:52:31;10.60;99.90
10433;DHT22;5263;48.680;9.004;2023-03-14T08:54:57;10.80;99.90
10433;DHT22;5263;48.680;9.004;2023-03-14T08:57:22;10.50;99.90
10433;DHT22;5263;48.680;9.004;2023-03-14T08:59:53;10.30;99.90
10433;DHT22;5263;48.680;9.004;2023-03-14T09:02:20;10.10;99.90
10433;DHT22;5263;48.680;9.004;2023-03-14T09:04:46;9.90;99.90
10433;DHT22;5263;48.680;9.004;2023-03-14T09:07:11;9.80;99.90
10433;DHT22;5263;48.680;9.004;2023-03-14T09:09:37;9.70;99.90
10433;DHT22;5263;48.680;9.004;2023-03-14T09:12:03;9.60;99.90
10433;DHT22;5263;48.680;9.004;2023-03-14T09:14:30;9.60;99.90
10433;DHT22;5263;48.680;9.004;2023-03-14T09:16:55;9.60;99.90
10433;DHT22;5263;48.680;9.004;2023-03-14T09:19:21;9.80;99.90
10433;DHT22;5263;48.680;9.004;2023-03-14T09:21:47;9.90;99.90
10433;DHT22;5263;48.680;9.004;2023-03-14T09:24:12;10.00;99.90
10433;DHT22;5263;48.680;9.004;2023-03-14T09:26:38;10.10;99.90
10433;DHT22;5263;48.680;9.004;2023-03-14T09:29:04;10.10;99.90
10433;DHT22;5263;48.680;9.004;2023-03-14T09:31:29;10.20;99.90
10433;DHT22;5263;48.680;9.004;2023-03-14T09:33:55;10.30;99.90
10433;DHT22;5263;48.680;9.004;2023-03-14T09:36:21;10.40;99.90
10433;DHT22;5263;48.680;9.004;2023-03-14T09:38:47;10.60;99.90
10433;DHT22;5263;48.680;9.004;2023-03-14T09:41:21;10.80;99.90
10433;DHT22;5263;48.680;9.004;2023-03-14T09:43:52;10.60;99.90
10433;DHT22;5263;48.680;9.004;2023-03-14T09:46:20;10.40;99.90
10433;DHT22;5263;48.680;9.004;2023-03-14T09:48:46;10.40;99.90
10433;DHT22;5263;48.680;9.004;2023-03-14T09:51:15;10.30;99.90
10433;DHT22;5263;48.680;9.004;2023-03-14T09:53:46;10.40;99.90
10433;DHT22;5263;48.680;9.004;2023-03-14T09:56:16;10.40;99.90
10433;DHT22;5263;48.680;9.004;2023-03-14T09:58:45;10.80;99.90
10433;DHT22;5263;48.680;9.004;2023-03-14T10:01:16;11.00;99.90
10433;DHT22;5263;48.680;9.004;2023-03-14T10:03:44;11.00;99.90
10433;DHT22;5263;48.680;9.004;2023-03-14T10:06:14;11.50;99.90
10433;DHT22;5263;48.680;9.004;2023-03-14T10:08:44;12.50;99.90
10433;DHT22;5263;48.680;9.004;2023-03-14T10:11:19;12.70;99.90
10433;DHT22;5263;48.680;9.004;2023-03-14T10:16:14;13.40;99.90
10433;DHT22;5263;48.680;9.004;2023-03-14T10:18:44;13.60;99.90
10433;DHT22;5263;48.680;9.004;2023-03-14T10:21:28;12.90;99.90
10433;DHT22;5263;48.680;9.004;2023-03-14T10:23:54;12.10;99.90
10433;DHT22;5263;48.680;9.004;2023-03-14T10:26:34;11.70;99.90
10433;DHT22;5263;48.680;9.004;2023-03-14T10:29:12;11.40;99.90
10433;DHT22;5263;48.680;9.004;2023-03-14T10:31:52;11.40;99.90
10433;DHT22;5263;48.680;9.004;2023-03-14T10:34:26;11.40;99.90
10433;DHT22;5263;48.680;9.004;2023-03-14T10:36:57;11.20;99.90
10433;DHT22;5263;48.680;9.004;2023-03-14T10:42:02;11.00;99.90
10433;DHT22;5263;48.680;9.004;2023-03-14T10:44:28;11.00;99.90
10433;DHT22;5263;48.680;9.004;2023-03-14T10:47:04;10.90;99.90
10433;DHT22;5263;48.680;9.004;2023-03-14T10:49:35;10.70;99.90
10433;DHT22;5263;48.680;9.004;2023-03-14T10:52:23;10.80;99.90
10433;DHT22;5263;48.680;9.004;2023-03-14T10:54:54;10.80;99.90
10433;DHT22;5263;48.680;9.004;2023-03-14T10:57:22;10.70;99.90
10433;DHT22;5263;48.680;9.004;2023-03-14T10:59:47;10.60;99.90
10433;DHT22;5263;48.680;9.004;2023-03-14T11:07:42;10.50;99.90
10433;DHT22;5263;48.680;9.004;2023-03-14T11:10:29;10.50;99.90
10433;DHT22;5263;48.680;9.004;2023-03-14T11:13:16;10.30;99.90
10433;DHT22;5263;48.680;9.004;2023-03-14T11:15:57;10.20;99.90
10433;DHT22;5263;48.680;9.004;2023-03-14T11:29:39;9.60;99.90
10433;DHT22;5263;48.680;9.004;2023-03-14T11:35:28;9.60;99.90
10433;DHT22;5263;48.680;9.004;2023-03-14T11:40:39;9.70;99.90
10433;DHT22;5263;48.680;9.004;2023-03-14T11:45:41;9.60;99.90
10433;DHT22;5263;48.680;9.004;2023-03-14T11:50:53;9.70;99.90
10433;DHT22;5263;48.680;9.004;2023-03-14T11:56:27;9.90;99.90
10433;DHT22;5263;48.680;9.004;2023-03-14T11:58:58;9.70;99.90
10433;DHT22;5263;48.680;9.004;2023-03-14T12:01:33;9.40;99.90
10433;DHT22;5263;48.680;9.004;2023-03-14T12:04:20;9.20;99.90
10433;DHT22;5263;48.680;9.004;2023-03-14T12:06:49;9.20;99.90
10433;DHT22;5263;48.680;9.004;2023-03-14T12:09:17;9.20;99.90
10433;DHT22;5263;48.680;9.004;2023-03-14T12:12:03;9.20;99.90
10433;DHT22;5263;48.680;9.004;2023-03-14T12:14:33;9.50;99.90
10433;DHT22;5263;48.680;9.004;2023-03-14T12:19:35;10.60;99.90
10433;DHT22;5263;48.680;9.004;2023-03-14T12:24:37;9.80;99.90
10433;DHT22;5263;48.680;9.004;2023-03-14T12:27:05;10.10;99.90
10433;DHT22;5263;48.680;9.004;2023-03-14T12:29:31;10.80;99.90
10433;DHT22;5263;48.680;9.004;2023-03-14T12:34:32;11.00;99.90
10433;DHT22;5263;48.680;9.004;2023-03-14T12:42:36;12.10;99.90
10433;DHT22;5263;48.680;9.004;2023-03-14T12:45:24;11.80;99.90
10433;DHT22;5263;48.680;9.004;2023-03-14T12:50:27;13.10;99.90
10433;DHT22;5263;48.680;9.004;2023-03-14T12:59:29;13.40;99.90
10433;DHT22;5263;48.680;9.004;2023-03-14T13:01:22;12.00;99.90
10433;DHT22;5263;48.680;9.004;2023-03-14T13:03:55;10.60;99.90
10433;DHT22;5263;48.680;9.004;2023-03-14T13:06:51;10.30;99.90
10433;DHT22;5263;48.680;9.004;2023-03-14T13:12:19;11.00;99.90
10433;DHT22;5263;48.680;9.004;2023-03-14T13:14:49;11.40;99.90
10433;DHT22;5263;48.680;9.004;2023-03-14T13:17:29;11.40;99.90
10433;DHT22;5263;48.680;9.004;2023-03-14T13:19:59;9.90;99.90
10433;DHT22;5263;48.680;9.004;2023-03-14T13:22:28;9.50;99.90
10433;DHT22;5263;48.680;9.004;2023-03-14T13:25:07;9.40;99.90
10433;DHT22;5263;48.680;9.004;2023-03-14T13:27:34;9.10;99.90
10433;DHT22;5263;48.680;9.004;2023-03-14T13:30:12;9.20;99.90
10433;DHT22;5263;48.680;9.004;2023-03-14T13:32:42;9.00;99.90
10433;DHT22;5263;48.680;9.004;2023-03-14T13:35:20;8.80;99.90
10433;DHT22;5263;48.680;9.004;2023-03-14T13:37:46;8.10;99.90
10433;DHT22;5263;48.680;9.004;2023-03-14T13:40:23;8.40;99.90
10433;DHT22;5263;48.680;9.004;2023-03-14T13:42:49;8.30;99.90
10433;DHT22;5263;48.680;9.004;2023-03-14T13:45:15;8.30;99.90
10433;DHT22;5263;48.680;9.004;2023-03-14T13:47:40;8.50;99.90
10433;DHT22;5263;48.680;9.004;2023-03-14T13:50:15;8.30;99.90
10433;DHT22;5263;48.680;9.004;2023-03-14T13:52:41;8.30;99.90
10433;DHT22;5263;48.680;9.004;2023-03-14T13:55:15;8.40;99.90
10433;DHT22;5263;48.680;9.004;2023-03-14T13:57:47;8.30;99.90
10433;DHT22;5263;48.680;9.004;2023-03-14T14:00:18;8.20;99.90
10433;DHT22;5263;48.680;9.004;2023-03-14T14:02:44;8.40;99.90
10433;DHT22;5263;48.680;9.004;2023-03-14T14:05:11;8.20;99.90
10433;DHT22;5263;48.680;9.004;2023-03-14T14:07:37;8.10;99.90
10433;DHT22;5263;48.680;9.004;2023-03-14T14:10:04;8.00;99.90
10433;DHT22;5263;48.680;9.004;2023-03-14T14:12:37;8.10;99.90
10433;DHT22;5263;48.680;9.004;2023-03-14T14:15:16;8.20;99.90
10433;DHT22;5263;48.680;9.004;2023-03-14T14:17:51;8.30;99.90
10433;DHT22;5263;48.680;9.004;2023-03-14T14:20:30;8.20;99.90
10433;DHT22;5263;48.680;9.004;2023-03-14T14:23:05;8.20;99.90
10433;DHT22;5263;48.680;9.004;2023-03-14T14:25:31;8.00;99.90
10433;DHT22;5263;48.680;9.004;2023-03-14T14:27:57;8.00;99.90
10433;DHT22;5263;48.680;9.004;2023-03-14T14:30:32;7.90;99.90
10433;DHT22;5263;48.680;9.004;2023-03-14T14:35:50;8.00;99.90
10433;DHT22;5263;48.680;9.004;2023-03-14T14:38:17;8.10;99.90
10433;DHT22;5263;48.680;9.004;2023-03-14T14:40:48;8.00;99.90
10433;DHT22;5263;48.680;9.004;2023-03-14T14:43:35;7.80;99.90
10433;DHT22;5263;48.680;9.004;2023-03-14T14:46:06;7.90;99.90
10433;DHT22;5263;48.680;9.004;2023-03-14T14:48:37;8.10;99.90
10433;DHT22;5263;48.680;9.004;2023-03-14T14:51:06;8.20;99.90
10433;DHT22;5263;48.680;9.004;2023-03-14T14:53:40;8.00;99.90
10433;DHT22;5263;48.680;9.004;2023-03-14T14:58:44;8.00;99.90
10433;DHT22;5263;48.680;9.004;2023-03-14T15:03:44;8.00;99.90
10433;DHT22;5263;48.680;9.004;2023-03-14T15:06:13;8.10;99.90
10433;DHT22;5263;48.680;9.004;2023-03-14T15:08:39;8.60;99.90
10433;DHT22;5263;48.680;9.004;2023-03-14T15:11:05;8.80;99.90
10433;DHT22;5263;48.680;9.004;2023-03-14T15:13:30;8.80;99.90
10433;DHT22;5263;48.680;9.004;2023-03-14T15:15:56;8.80;99.90
10433;DHT22;5263;48.680;9.004;2023-03-14T15:18:24;9.20;99.90
10433;DHT22;5263;48.680;9.004;2023-03-14T15:20:50;9.60;99.90
10433;DHT22;5263;48.680;9.004;2023-03-14T15:23:18;9.20;99.90
10433;DHT22;5263;48.680;9.004;2023-03-14T15:25:44;8.30;99.90
10433;DHT22;5263;48.680;9.004;2023-03-14T15:30:49;8.00;99.90
10433;DHT22;5263;48.680;9.004;2023-03-14T15:33:15;8.00;99.90
10433;DHT22;5263;48.680;9.004;2023-03-14T15:35:41;8.00;99.90
10433;DHT22;5263;48.680;9.004;2023-03-14T15:38:15;8.10;99.90
10433;DHT22;5263;48.680;9.004;2023-03-14T15:40:42;8.10;99.90
10433;DHT22;5263;48.680;9.004;2023-03-14T15:43:08;8.20;99.90
10433;DHT22;5263;48.680;9.004;2023-03-14T15:45:34;8.20;99.90
10433;DHT22;5263;48.680;9.004;2023-03-14T15:48:00;8.20;99.90
10433;DHT22;5263;48.680;9.004;2023-03-14T15:50:32;8.20;99.90
10433;DHT22;5263;48.680;9.004;2023-03-14T15:52:58;8.10;99.90
10433;DHT22;5263;48.680;9.004;2023-03-14T15:55:23;8.20;99.90
10433;DHT22;5263;48.680;9.004;2023-03-14T15:57:49;8.00;99.90
10433;DHT22;5263;48.680;9.004;2023-03-14T16:00:17;8.30;99.90
10433;DHT22;5263;48.680;9.004;2023-03-14T16:02:44;8.40;99.90
10433;DHT22;5263;48.680;9.004;2023-03-14T16:05:11;8.40;99.90
10433;DHT22;5263;48.680;9.004;2023-03-14T16:07:37;8.30;99.90
10433;DHT22;5263;48.680;9.004;2023-03-14T16:10:03;8.30;99.90
10433;DHT22;5263;48.680;9.004;2023-03-14T16:12:30;8.20;99.90
10433;DHT22;5263;48.680;9.004;2023-03-14T16:14:55;8.40;99.90
10433;DHT22;5263;48.680;9.004;2023-03-14T16:17:21;8.70;99.90
10433;DHT22;5263;48.680;9.004;2023-03-14T16:19:47;8.80;99.90
10433;DHT22;5263;48.680;9.004;2023-03-14T16:22:12;8.50;99.90
10433;DHT22;5263;48.680;9.004;2023-03-14T16:24:38;8.50;99.90
10433;DHT22;5263;48.680;9.004;2023-03-14T16:27:03;7.90;99.90
10433;DHT22;5263;48.680;9.004;2023-03-14T16:29:30;7.90;99.90
10433;DHT22;5263;48.680;9.004;2023-03-14T16:31:56;7.60;99.90
10433;DHT22;5263;48.680;9.004;2023-03-14T16:34:21;7.60;99.90
10433;DHT22;5263;48.680;9.004;2023-03-14T16:36:47;7.50;99.90
10433;DHT22;5263;48.680;9.004;2023-03-14T16:39:13;7.50;99.90
10433;DHT22;5263;48.680;9.004;2023-03-14T16:41:38;7.50;99.90
10433;DHT22;5263;48.680;9.004;2023-03-14T16:44:04;7.40;99.90
10433;DHT22;5263;48.680;9.004;2023-03-14T16:46:29;7.30;99.90
10433;DHT22;5263;48.680;9.004;2023-03-14T16:48:55;7.30;99.90
10433;DHT22;5263;48.680;9.004;2023-03-14T16:51:22;7.20;99.90
10433;DHT22;5263;48.680;9.004;2023-03-14T16:53:48;7.20;99.90
10433;DHT22;5263;48.680;9.004;2023-03-14T16:56:14;7.10;99.90
10433;DHT22;5263;48.680;9.004;2023-03-14T16:58:40;7.10;99.90
10433;DHT22;5263;48.680;9.004;2023-03-14T17:01:06;7.00;99.90
10433;DHT22;5263;48.680;9.004;2023-03-14T17:03:36;6.90;99.90
10433;DHT22;5263;48.680;9.004;2023-03-14T17:06:02;6.90;99.90
10433;DHT22;5263;48.680;9.004;2023-03-14T17:08:28;6.80;99.90
10433;DHT22;5263;48.680;9.004;2023-03-14T17:10:54;6.70;99.90
10433;DHT22;5263;48.680;9.004;2023-03-14T17:13:20;6.30;99.90
10433;DHT22;5263;48.680;9.004;2023-03-14T17:15:54;6.30;99.90
10433;DHT22;5263;48.680;9.004;2023-03-14T17:18:21;6.20;99.90
10433;DHT22;5263;48.680;9.004;2023-03-14T17:20:46;6.00;99.90
10433;DHT22;5263;48.680;9.004;2023-03-14T17:23:12;6.00;99.90